Time;durP1;ratioP1;P1;durP2;ratioP2;P2;SDS_P1;SDS_P2;PMS_P1;PMS_P2;Temp;Humidity;BMP_temperature;BMP_pressure;BME280_temperature;BME280_humidity;BME280_pressure;Samples;Min_cycle;Max_cycle;Signal;HPM_P1;HPM_P2
2022/08/08 00:01:42;;;;;;;3.67;2.20;;;15.10;99.90;;;;;;5031944;28;20456;-65
2022/08/08 00:04:16;;;;;;;;;;;15.00;99.90;;;;;;5031930;28;20041;-66
2022/08/08 00:06:48;;;;;;;4.13;1.80;;;15.00;99.90;;;;;;5015499;28;20019;-66
2022/08/08 00:09:50;;;;;;;3.90;1.80;;;14.90;99.90;;;;;;5031770;28;20041;-66
2022/08/08 00:12:22;;;;;;;5.40;1.88;;;14.90;99.90;;;;;;5047410;28;20041;-65
2022/08/08 00:14:56;;;;;;;2.53;1.88;;;14.80;99.90;;;;;;5073559;28;20498;-65
2022/08/08 00:17:48;;;;;;;3.10;1.92;;;14.90;99.90;;;;;;5073745;28;20040;-65
2022/08/08 00:20:22;;;;;;;3.10;1.80;;;14.90;99.90;;;;;;5073687;28;20055;-65
2022/08/08 00:22:51;;;;;;;2.55;1.73;;;14.90;99.90;;;;;;5073739;28;20029;-66
2022/08/08 00:25:25;;;;;;;3.28;2.40;;;14.90;99.90;;;;;;5073649;28;20040;-65
2022/08/08 00:27:56;;;;;;;3.97;2.30;;;14.80;99.90;;;;;;5073502;28;20082;-65
2022/08/08 00:30:25;;;;;;;5.45;2.83;;;14.80;99.90;;;;;;5073691;28;20074;-66
2022/08/08 00:32:55;;;;;;;3.17;2.88;;;14.70;99.90;;;;;;5073654;28;20043;-66
2022/08/08 00:35:27;;;;;;;5.28;2.90;;;14.70;99.90;;;;;;5073633;28;20119;-66
2022/08/08 00:38:38;;;;;;;4.13;2.47;;;14.80;99.90;;;;;;5073621;28;20098;-66
2022/08/08 00:41:40;;;;;;;2.72;2.17;;;14.80;99.90;;;;;;5070967;28;20045;-66
2022/08/08 00:44:43;;;;;;;3.20;2.22;;;14.80;99.90;;;;;;5072181;28;20051;-66
2022/08/08 00:47:47;;;;;;;3.58;2.35;;;14.70;99.90;;;;;;5073429;28;20128;-66
2022/08/08 00:50:25;;;;;;;2.95;2.30;;;14.70;99.90;;;;;;5073362;28;20045;-66
2022/08/08 00:52:57;;;;;;;3.42;2.30;;;14.60;99.90;;;;;;5072377;28;20364;-66
2022/08/08 00:56:00;;;;;;;3.28;2.47;;;14.60;99.90;;;;;;5073262;28;20047;-65
2022/08/08 00:58:56;;;;;;;3.90;2.67;;;14.60;99.90;;;;;;5073365;28;20093;-65
2022/08/08 01:01:32;;;;;;;6.03;2.22;;;14.60;99.90;;;;;;5072175;28;20048;-65
2022/08/08 01:04:18;;;;;;;4.93;2.10;;;14.60;99.90;;;;;;5074581;28;20043;-65
2022/08/08 01:07:15;;;;;;;2.83;2.33;;;14.50;99.90;;;;;;5076916;28;20047;-65
2022/08/08 01:10:13;;;;;;;3.35;2.47;;;14.50;99.90;;;;;;5077040;28;20044;-65
2022/08/08 01:12:44;;;;;;;5.47;2.50;;;14.50;99.90;;;;;;5077377;28;20044;-65
2022/08/08 01:15:36;;;;;;;3.22;2.30;;;14.40;99.90;;;;;;5077109;28;20040;-65
2022/08/08 01:18:16;;;;;;;4.63;2.28;;;14.40;99.90;;;;;;5034776;28;20045;-65
2022/08/08 01:21:06;;;;;;;4.68;2.30;;;14.40;99.90;;;;;;5034742;28;20052;-65
2022/08/08 01:24:03;;;;;;;6.78;2.50;;;14.40;99.90;;;;;;5034704;28;20054;-66
2022/08/08 01:26:55;;;;;;;3.22;2.65;;;14.40;99.90;;;;;;5034651;28;20037;-65
2022/08/08 01:29:35;;;;;;;4.30;2.90;;;14.40;99.90;;;;;;5034535;28;20115;-65
2022/08/08 01:32:27;;;;;;;3.80;2.60;;;14.20;99.90;;;;;;5034572;28;20595;-65
2022/08/08 01:35:18;;;;;;;3.30;2.50;;;14.20;99.90;;;;;;5034513;28;20049;-65
2022/08/08 01:38:14;;;;;;;5.45;2.20;;;14.30;99.90;;;;;;5023837;28;20100;-65
2022/08/08 01:40:58;;;;;;;6.32;2.00;;;14.30;99.90;;;;;;5034125;28;20054;-65
2022/08/08 01:43:47;;;;;;;2.85;2.40;;;14.20;99.90;;;;;;5034276;28;20038;-65
2022/08/08 01:46:41;;;;;;;4.35;2.70;;;14.20;99.90;;;;;;5034091;28;20172;-64
2022/08/08 01:49:24;;;;;;;3.70;2.45;;;14.10;99.90;;;;;;5017688;28;20074;-65
2022/08/08 01:52:11;;;;;;;4.13;2.80;;;14.20;99.90;;;;;;5034227;28;20116;-64
2022/08/08 01:55:14;;;;;;;3.85;2.58;;;14.20;99.90;;;;;;5047352;28;20487;-65
2022/08/08 01:57:57;;;;;;;4.22;2.92;;;14.20;99.90;;;;;;5075990;28;20047;-65
2022/08/08 02:00:34;;;;;;;6.10;2.60;;;14.10;99.90;;;;;;5075869;28;20474;-65
2022/08/08 02:03:34;;;;;;;3.20;2.63;;;14.10;99.90;;;;;;5075891;28;20044;-65
2022/08/08 02:06:24;;;;;;;5.13;2.85;;;14.20;99.90;;;;;;5076088;28;20127;-64
2022/08/08 02:09:04;;;;;;;4.57;3.00;;;14.20;99.90;;;;;;5076026;28;20040;-64
2022/08/08 02:11:35;;;;;;;2.28;2.08;;;14.20;99.90;;;;;;5075961;28;20033;-64
2022/08/08 02:14:07;;;;;;;3.13;2.25;;;14.30;99.90;;;;;;5074318;28;20037;-64
2022/08/08 02:17:03;;;;;;;3.60;2.15;;;14.20;99.90;;;;;;5075858;28;20090;-64
2022/08/08 02:20:09;;;;;;;6.07;2.33;;;14.20;99.90;;;;;;5075987;28;20052;-65
2022/08/08 02:22:46;;;;;;;3.92;2.65;;;14.20;99.90;;;;;;5075702;28;20112;-65
2022/08/08 02:25:56;;;;;;;4.05;2.50;;;14.20;99.90;;;;;;5075589;28;20241;-65
2022/08/08 02:28:46;;;;;;;2.70;2.00;;;14.20;99.90;;;;;;5033394;28;20049;-65
2022/08/08 02:31:39;;;;;;;4.32;3.30;;;14.10;99.90;;;;;;5033517;28;20045;-64
2022/08/08 02:34:08;;;;;;;4.68;3.47;;;14.20;99.90;;;;;;5033721;28;20141;-64
2022/08/08 02:37:19;;;;;;;6.00;3.28;;;14.20;99.90;;;;;;5033240;28;20104;-65
2022/08/08 02:39:53;;;;;;;4.70;3.13;;;14.30;99.90;;;;;;4954794;29;20054;-65
2022/08/08 02:42:18;;;;;;;4.90;3.45;;;14.20;99.90;;;;;;4954874;29;20074;-65
2022/08/08 02:44:50;;;;;;;4.18;2.30;;;14.20;99.90;;;;;;4955015;29;20534;-65
2022/08/08 02:47:45;;;;;;;7.85;2.22;;;14.30;99.90;;;;;;4955001;29;20503;-65
2022/08/08 02:50:56;;;;;;;3.05;2.80;;;14.30;99.90;;;;;;4938883;29;20059;-65
2022/08/08 02:53:57;;;;;;;6.30;3.72;;;14.30;99.90;;;;;;4954808;29;20043;-65
2022/08/08 02:56:41;;;;;;;7.22;3.65;;;14.40;99.90;;;;;;4916452;29;20059;-64
2022/08/08 02:59:37;;;;;;;8.02;4.43;;;14.50;99.90;;;;;;4916654;29;20055;-64
2022/08/08 03:02:45;;;;;;;6.50;3.90;;;14.50;99.90;;;;;;4933447;29;20055;-64
2022/08/08 03:05:41;;;;;;;5.25;3.63;;;14.40;99.90;;;;;;4954569;29;20051;-65
2022/08/08 03:08:28;;;;;;;5.75;3.88;;;14.40;99.90;;;;;;4954706;29;20059;-65
2022/08/08 03:11:18;;;;;;;8.63;4.50;;;14.40;99.90;;;;;;4954574;29;20533;-65
2022/08/08 03:13:54;;;;;;;5.90;3.75;;;14.40;99.90;;;;;;4954475;29;20110;-64
2022/08/08 03:16:20;;;;;;;5.90;3.95;;;14.50;99.90;;;;;;4975522;28;20061;-65
2022/08/08 03:18:49;;;;;;;7.60;4.43;;;14.40;99.90;;;;;;4993461;28;20042;-64
2022/08/08 03:21:15;;;;;;;5.78;4.07;;;14.40;99.90;;;;;;4976908;28;20047;-64
2022/08/08 03:23:40;;;;;;;7.65;4.43;;;14.40;99.90;;;;;;4992914;28;20495;-65
2022/08/08 03:26:06;;;;;;;6.07;4.03;;;14.40;99.90;;;;;;4992158;28;20112;-64
2022/08/08 03:28:37;;;;;;;4.53;4.13;;;14.40;99.90;;;;;;4992938;28;20421;-64
2022/08/08 03:33:16;;;;;;;7.70;4.00;;;14.50;99.90;;;;;;4992956;28;20101;-64
2022/08/08 03:33:48;;;;;;;7.78;4.80;;;14.30;99.90;;;;;;5059776;28;20041;-64
2022/08/08 03:36:14;;;;;;;8.05;4.43;;;14.40;99.90;;;;;;5074000;28;20063;-64
2022/08/08 03:38:40;;;;;;;5.10;4.10;;;14.30;99.90;;;;;;5074173;28;20044;-64
2022/08/08 03:41:05;;;;;;;6.45;4.20;;;14.30;99.90;;;;;;5074121;28;20415;-66
2022/08/08 03:43:31;;;;;;;5.47;4.47;;;14.30;99.90;;;;;;5074043;28;20049;-65
2022/08/08 03:46:03;;;;;;;8.68;4.20;;;14.30;99.90;;;;;;5073967;28;20048;-64
2022/08/08 03:48:28;;;;;;;6.30;4.10;;;14.20;99.90;;;;;;5073741;28;20028;-65
2022/08/08 03:50:54;;;;;;;5.57;4.65;;;14.40;99.90;;;;;;5074076;28;20039;-64
2022/08/08 03:53:20;;;;;;;8.00;4.95;;;14.40;99.90;;;;;;5074058;28;20493;-64
2022/08/08 03:55:48;;;;;;;5.90;4.22;;;14.20;99.90;;;;;;5073973;28;20028;-64
2022/08/08 03:58:22;;;;;;;10.23;4.47;;;14.30;99.90;;;;;;5073980;28;20105;-65
2022/08/08 04:00:53;;;;;;;9.68;4.65;;;14.30;99.90;;;;;;5073715;28;20040;-64
2022/08/08 04:03:19;;;;;;;6.05;4.07;;;14.30;99.90;;;;;;5073601;28;20536;-64
2022/08/08 04:05:46;;;;;;;8.70;5.13;;;14.30;99.90;;;;;;5073537;28;20058;-65
2022/08/08 04:08:20;;;;;;;7.05;4.63;;;14.30;99.90;;;;;;5073783;28;20051;-64
2022/08/08 04:10:47;;;;;;;7.00;4.90;;;14.40;99.90;;;;;;5074040;28;20352;-64
2022/08/08 04:13:13;;;;;;;8.32;4.35;;;14.30;99.90;;;;;;5073822;28;20037;-64
2022/08/08 04:15:39;;;;;;;8.75;4.35;;;14.30;99.90;;;;;;5073778;28;20111;-65
2022/08/08 04:18:05;;;;;;;7.82;4.20;;;14.40;99.90;;;;;;5073800;28;20123;-64
2022/08/08 04:20:31;;;;;;;8.23;4.70;;;14.40;99.90;;;;;;5073444;28;20035;-65
2022/08/08 04:22:57;;;;;;;5.13;4.50;;;14.40;99.90;;;;;;5073770;28;20120;-64
2022/08/08 04:25:22;;;;;;;6.43;4.50;;;14.50;99.90;;;;;;5073669;28;20387;-64
2022/08/08 04:27:48;;;;;;;9.55;4.75;;;14.50;99.90;;;;;;5073615;28;20040;-64
2022/08/08 04:30:14;;;;;;;4.90;4.38;;;14.60;99.90;;;;;;5073557;28;20036;-64
2022/08/08 04:32:39;;;;;;;8.63;4.57;;;14.50;99.90;;;;;;5074048;28;20426;-64
2022/08/08 04:35:05;;;;;;;5.78;4.47;;;14.50;99.90;;;;;;5073785;28;20371;-66
2022/08/08 04:37:31;;;;;;;6.70;4.50;;;14.40;99.90;;;;;;5074279;28;20241;-65
2022/08/08 04:39:57;;;;;;;4.90;4.13;;;14.50;99.90;;;;;;5077401;28;20131;-65
2022/08/08 04:42:24;;;;;;;7.80;4.20;;;14.40;99.90;;;;;;5077053;28;20064;-65
2022/08/08 04:44:52;;;;;;;7.50;5.68;;;14.40;99.90;;;;;;5077530;28;20056;-65
2022/08/08 04:47:18;;;;;;;9.10;5.35;;;14.40;99.90;;;;;;5075957;28;20128;-66
2022/08/08 04:49:44;;;;;;;7.03;5.13;;;14.40;99.90;;;;;;5077487;28;20115;-65
2022/08/08 04:52:09;;;;;;;8.63;4.70;;;14.50;99.90;;;;;;5077130;28;20033;-65
2022/08/08 04:54:35;;;;;;;5.57;4.50;;;14.40;99.90;;;;;;5077277;28;20095;-65
2022/08/08 04:57:01;;;;;;;12.27;4.90;;;14.50;99.90;;;;;;5077247;28;20046;-65
2022/08/08 04:59:26;;;;;;;8.05;4.43;;;14.50;99.90;;;;;;5077168;28;20072;-65
2022/08/08 05:01:52;;;;;;;7.63;5.00;;;14.60;99.90;;;;;;5077243;28;20086;-65
2022/08/08 05:04:17;;;;;;;7.13;5.05;;;14.50;99.90;;;;;;5076885;28;20394;-65
2022/08/08 05:06:44;;;;;;;6.18;4.80;;;14.50;99.90;;;;;;5076940;28;20063;-65
2022/08/08 05:09:09;;;;;;;8.50;4.50;;;14.50;99.90;;;;;;5077099;28;20044;-65
2022/08/08 05:11:35;;;;;;;7.85;5.13;;;14.50;99.90;;;;;;5076949;28;20037;-65
2022/08/08 05:14:00;;;;;;;9.13;4.53;;;14.50;99.90;;;;;;5076930;28;20037;-64
2022/08/08 05:16:27;;;;;;;6.18;5.03;;;14.60;99.90;;;;;;5076914;28;20094;-65
2022/08/08 05:18:53;;;;;;;9.23;4.97;;;14.60;99.90;;;;;;5076689;28;20079;-65
2022/08/08 05:21:18;;;;;;;8.30;5.03;;;14.70;99.90;;;;;;5075678;28;20072;-65
2022/08/08 05:23:44;;;;;;;7.32;5.20;;;14.70;99.90;;;;;;5076776;28;20043;-65
2022/08/08 05:26:09;;;;;;;8.18;5.18;;;14.80;99.90;;;;;;5076481;28;20055;-65
2022/08/08 05:28:35;;;;;;;6.82;5.38;;;14.80;99.90;;;;;;5076665;28;20041;-65
2022/08/08 05:31:01;;;;;;;6.28;4.88;;;14.70;99.90;;;;;;5076906;28;20111;-65
2022/08/08 05:33:26;;;;;;;8.73;4.88;;;14.80;99.90;;;;;;5076464;28;20123;-65
2022/08/08 05:35:53;;;;;;;7.60;5.70;;;15.00;99.90;;;;;;5076709;28;20040;-65
2022/08/08 05:38:21;;;;;;;9.35;5.60;;;15.20;99.90;;;;;;5076538;28;20036;-64
2022/08/08 05:40:49;;;;;;;8.17;6.00;;;15.10;99.90;;;;;;5076402;28;20055;-64
2022/08/08 05:43:34;;;;;;;8.50;4.93;;;15.20;99.90;;;;;;5076179;28;20119;-64
2022/08/08 05:46:04;;;;;;;9.38;5.60;;;15.20;99.90;;;;;;5076374;28;20044;-64
2022/08/08 05:48:32;;;;;;;9.27;5.35;;;15.30;99.90;;;;;;5076316;28;20485;-64
2022/08/08 05:50:58;;;;;;;8.07;4.67;;;15.40;99.90;;;;;;5075622;28;20032;-64
2022/08/08 05:53:27;;;;;;;11.05;5.35;;;15.50;99.90;;;;;;5076284;28;20379;-64
2022/08/08 05:55:55;;;;;;;10.48;5.63;;;15.60;99.90;;;;;;5076102;28;20467;-63
2022/08/08 05:58:27;;;;;;;10.38;5.05;;;15.60;99.90;;;;;;5076209;28;20090;-63
2022/08/08 06:00:55;;;;;;;8.38;4.43;;;15.60;99.90;;;;;;5076067;28;20477;-64
2022/08/08 06:03:22;;;;;;;13.23;4.82;;;15.70;99.90;;;;;;5075840;28;20032;-63
2022/08/08 06:05:55;;;;;;;9.57;5.40;;;15.80;99.90;;;;;;5076023;28;20040;-65
2022/08/08 06:08:49;;;;;;;7.43;5.00;;;15.90;99.90;;;;;;5076426;28;20043;-63
2022/08/08 06:11:15;;;;;;;9.75;5.13;;;15.90;99.90;;;;;;5075412;28;20072;-64
2022/08/08 06:13:40;;;;;;;10.95;5.30;;;16.00;99.90;;;;;;5075981;28;20079;-64
2022/08/08 06:16:10;;;;;;;10.52;5.50;;;16.00;99.90;;;;;;5075865;28;20128;-64
2022/08/08 06:18:38;;;;;;;7.05;5.57;;;16.10;99.90;;;;;;5075805;28;20041;-63
2022/08/08 06:21:04;;;;;;;9.50;5.45;;;16.20;99.90;;;;;;5075815;28;20086;-64
2022/08/08 06:23:30;;;;;;;5.95;4.47;;;16.30;99.90;;;;;;5075587;28;20040;-64
2022/08/08 06:26:03;;;;;;;7.10;4.43;;;16.30;99.90;;;;;;5075709;28;20033;-64
2022/08/08 06:28:31;;;;;;;7.53;4.45;;;16.30;99.90;;;;;;5075664;28;20047;-65
2022/08/08 06:31:03;;;;;;;8.02;4.38;;;16.30;99.90;;;;;;5075593;28;20094;-65
2022/08/08 06:33:45;;;;;;;8.00;4.85;;;16.50;99.90;;;;;;5075545;28;20032;-65
2022/08/08 06:36:14;;;;;;;23.55;5.55;;;16.50;99.90;;;;;;5073549;28;20088;-64
2022/08/08 06:38:46;;;;;;;25.10;6.43;;;16.60;99.90;;;;;;5075460;28;20048;-65
2022/08/08 06:41:16;;;;;;;32.10;6.85;;;16.60;99.90;;;;;;5075123;28;20110;-64
2022/08/08 06:43:46;;;;;;;21.52;6.35;;;16.60;99.90;;;;;;5075326;28;20044;-64
2022/08/08 06:46:12;;;;;;;14.20;5.63;;;16.80;99.90;;;;;;5074938;28;20036;-64
2022/08/08 06:48:37;;;;;;;9.63;4.82;;;16.90;99.90;;;;;;5074943;28;20043;-63
2022/08/08 06:51:03;;;;;;;7.47;4.63;;;17.00;99.90;;;;;;5075132;28;20116;-63
2022/08/08 06:53:31;;;;;;;9.55;5.07;;;17.00;99.90;;;;;;5075072;28;20044;-63
2022/08/08 06:55:58;;;;;;;18.67;6.22;;;17.40;99.90;;;;;;5073309;28;20059;-63
2022/08/08 06:58:24;;;;;;;13.13;5.60;;;17.60;99.90;;;;;;5074592;28;20032;-62
2022/08/08 07:00:50;;;;;;;13.35;4.72;;;18.00;99.90;;;;;;5074637;28;20531;-62
2022/08/08 07:03:35;;;;;;;45.55;6.20;;;18.50;99.90;;;;;;5073406;28;20040;-63
2022/08/08 07:06:02;;;;;;;52.08;8.15;;;18.50;99.90;;;;;;5074604;28;20048;-63
2022/08/08 07:08:35;;;;;;;21.38;6.15;;;18.60;99.90;;;;;;5073480;28;20051;-63
2022/08/08 07:11:03;;;;;;;19.80;6.38;;;18.60;99.90;;;;;;5074743;28;20079;-63
2022/08/08 07:13:42;;;;;;;17.40;5.25;;;18.60;99.90;;;;;;5074762;28;20036;-63
2022/08/08 07:16:33;;;;;;;11.32;3.90;;;18.80;99.90;;;;;;5074705;28;20055;-63
2022/08/08 07:19:17;;;;;;;9.63;3.30;;;19.00;99.90;;;;;;5074480;28;20120;-63
2022/08/08 07:21:56;;;;;;;31.98;4.15;;;19.00;99.90;;;;;;5074577;28;20036;-62
2022/08/08 07:24:42;;;;;;;8.88;2.88;;;19.00;99.90;;;;;;5091560;27;20728;-63
2022/08/08 07:27:11;;;;;;;10.98;2.95;;;18.90;99.90;;;;;;5091349;28;20119;-63
2022/08/08 07:29:37;;;;;;;40.67;5.78;;;18.80;99.90;;;;;;5091344;28;20119;-63
2022/08/08 07:32:04;;;;;;;44.03;6.78;;;18.70;99.90;;;;;;5091214;28;20064;-63
2022/08/08 07:34:32;;;;;;;13.88;3.30;;;18.80;99.90;;;;;;5089709;28;20052;-63
2022/08/08 07:37:00;;;;;;;12.15;3.40;;;19.10;99.90;;;;;;5091199;28;20093;-63
2022/08/08 07:39:29;;;;;;;8.03;2.90;;;19.60;99.90;;;;;;5090953;28;20067;-62
2022/08/08 07:41:56;;;;;;;11.57;3.25;;;20.00;99.90;;;;;;5090809;28;20298;-63
2022/08/08 07:44:23;;;;;;;5.68;2.20;;;20.60;99.90;;;;;;5090721;28;20037;-62
2022/08/08 07:46:49;;;;;;;3.45;1.25;;;20.90;99.90;;;;;;5090880;28;20036;-63
2022/08/08 07:49:14;;;;;;;10.55;2.67;;;21.20;99.90;;;;;;5090980;28;20475;-62
2022/08/08 07:51:41;;;;;;;5.15;2.00;;;21.40;99.90;;;;;;5090877;28;20044;-63
2022/08/08 07:54:18;;;;;;;4.97;1.50;;;21.60;99.90;;;;;;5090753;28;20564;-63
2022/08/08 07:57:16;;;;;;;8.30;1.70;;;22.00;99.90;;;;;;5090813;28;20048;-63
2022/08/08 07:59:55;;;;;;;4.35;1.10;;;22.30;99.90;;;;;;5068333;28;20055;-62
2022/08/08 08:02:25;;;;;;;1.27;0.60;;;22.80;99.90;;;;;;5068301;28;20091;-63
2022/08/08 08:04:58;;;;;;;4.25;0.90;;;23.20;99.90;;;;;;5068228;28;20060;-61
2022/08/08 08:07:25;;;;;;;4.95;1.20;;;23.40;99.90;;;;;;5067963;28;20044;-62
2022/08/08 08:09:51;;;;;;;3.00;0.98;;;23.60;99.90;;;;;;5067998;28;20384;-62
2022/08/08 08:12:20;;;;;;;4.72;1.05;;;23.70;99.90;;;;;;5068082;28;20033;-62
2022/08/08 08:15:01;;;;;;;4.22;1.13;;;23.70;99.90;;;;;;5068129;28;20091;-62
2022/08/08 08:17:27;;;;;;;2.67;0.90;;;23.60;99.90;;;;;;5067907;28;20574;-63
2022/08/08 08:19:57;;;;;;;1.65;0.55;;;23.60;99.90;;;;;;5067787;28;20036;-64
2022/08/08 08:22:23;;;;;;;3.40;1.10;;;23.30;99.90;;;;;;5067406;28;20082;-64
2022/08/08 08:24:48;;;;;;;3.03;1.13;;;23.10;99.90;;;;;;5051144;28;20044;-62
2022/08/08 08:27:15;;;;;;;5.90;1.17;;;22.80;99.90;;;;;;5067789;28;20043;-62
2022/08/08 08:29:41;;;;;;;2.58;0.93;;;22.80;99.90;;;;;;5067659;28;20107;-62
2022/08/08 08:32:07;;;;;;;3.08;1.00;;;22.70;99.90;;;;;;5067452;28;20044;-62
2022/08/08 08:34:35;;;;;;;3.25;0.82;;;22.60;99.90;;;;;;5061377;28;20032;-62
2022/08/08 08:37:02;;;;;;;6.25;1.55;;;22.50;99.90;;;;;;5071639;28;20053;-62
2022/08/08 08:39:27;;;;;;;5.50;1.30;;;22.40;99.90;;;;;;5076395;28;20029;-63
2022/08/08 08:41:54;;;;;;;2.97;0.95;;;22.30;99.90;;;;;;5076335;28;20444;-64
2022/08/08 08:44:20;;;;;;;2.95;0.80;;;22.30;99.90;;;;;;5076281;28;20045;-63
2022/08/08 08:46:46;;;;;;;2.65;0.75;;;22.30;99.90;;;;;;5076340;28;20036;-63
2022/08/08 08:49:13;;;;;;;16.90;2.05;;;22.20;99.90;;;;;;5074544;28;20068;-63
2022/08/08 08:51:42;;;;;;;116.40;14.35;;;22.10;99.90;;;;;;5074583;28;20040;-62
2022/08/08 08:54:08;;;;;;;107.90;10.75;;;22.20;99.90;;;;;;5074963;28;20589;-63
2022/08/08 08:56:36;;;;;;;178.15;18.38;;;22.10;99.90;;;;;;5076112;28;20085;-62
2022/08/08 08:59:03;;;;;;;40.13;4.88;;;22.10;99.90;;;;;;5076094;28;20049;-63
2022/08/08 09:01:39;;;;;;;47.67;5.20;;;21.90;99.90;;;;;;5076015;28;20036;-63
2022/08/08 09:04:13;;;;;;;13.80;2.00;;;21.90;99.90;;;;;;5074744;28;20044;-63
2022/08/08 09:06:40;;;;;;;10.20;2.05;;;21.90;99.90;;;;;;5075902;28;20040;-64
2022/08/08 09:09:09;;;;;;;5.78;1.30;;;21.80;99.90;;;;;;5075772;28;20450;-65
2022/08/08 09:11:34;;;;;;;;;;;21.70;99.90;;;;;;5076101;28;20046;-63
2022/08/08 09:14:01;;;;;;;15.55;1.92;;;21.70;99.90;;;;;;5075891;28;19920;-63
2022/08/08 09:16:29;;;;;;;55.80;6.18;;;21.60;99.90;;;;;;5075756;28;20055;-63
2022/08/08 09:18:56;;;;;;;6.65;1.35;;;21.70;99.90;;;;;;5075784;28;20430;-63
2022/08/08 09:21:22;;;;;;;5.47;1.67;;;21.70;99.90;;;;;;5075730;28;20090;-63
2022/08/08 09:23:49;;;;;;;4.35;1.00;;;21.70;99.90;;;;;;5073983;28;20041;-63
2022/08/08 09:26:45;;;;;;;2.20;0.77;;;21.70;99.90;;;;;;5057568;28;20040;-64
2022/08/08 09:29:21;;;;;;;3.33;0.80;;;21.80;99.90;;;;;;5075389;28;20094;-63
2022/08/08 09:31:54;;;;;;;2.67;0.88;;;21.90;99.90;;;;;;5075602;28;20035;-62
2022/08/08 09:34:20;;;;;;;4.85;1.13;;;21.90;99.90;;;;;;5075459;28;20044;-63
2022/08/08 09:36:47;;;;;;;14.38;3.20;;;21.90;99.90;;;;;;5075535;28;20036;-63
2022/08/08 09:39:20;;;;;;;45.38;7.85;;;22.00;99.90;;;;;;5075399;28;20062;-63
2022/08/08 09:41:59;;;;;;;7.93;1.75;;;22.10;99.90;;;;;;5075252;28;20386;-63
2022/08/08 09:44:28;;;;;;;;;;;22.10;99.90;;;;;;5075642;28;20101;-63
2022/08/08 09:46:55;;;;;;;5.97;0.90;;;22.20;99.90;;;;;;5074188;28;19916;-63
2022/08/08 09:49:21;;;;;;;2.88;1.10;;;22.30;99.90;;;;;;5075204;28;20040;-64
2022/08/08 09:51:51;;;;;;;1.83;0.55;;;22.40;99.90;;;;;;5075161;28;20444;-62
2022/08/08 09:54:21;;;;;;;4.25;1.15;;;22.40;99.90;;;;;;5073739;28;20094;-62
2022/08/08 09:56:54;;;;;;;3.55;1.00;;;22.50;99.90;;;;;;5074950;28;20082;-63
2022/08/08 09:59:30;;;;;;;16.00;3.45;;;22.50;99.90;;;;;;5074561;28;20097;-63
2022/08/08 10:01:58;;;;;;;2.78;0.98;;;22.50;99.90;;;;;;5074718;28;20475;-63
2022/08/08 10:04:26;;;;;;;1.90;0.73;;;22.40;99.90;;;;;;5074652;28;20475;-63
2022/08/08 10:06:52;;;;;;;3.90;0.93;;;22.20;99.90;;;;;;5074574;28;20089;-63
2022/08/08 10:09:50;;;;;;;11.13;1.35;;;22.10;99.90;;;;;;5075148;28;20039;-63
2022/08/08 10:12:17;;;;;;;3.60;0.82;;;22.20;99.90;;;;;;5032524;28;20179;-63
2022/08/08 10:14:42;;;;;;;4.32;0.90;;;22.30;99.90;;;;;;5016064;28;20044;-63
2022/08/08 10:17:09;;;;;;;6.55;1.88;;;22.40;99.90;;;;;;5032530;28;20041;-63
2022/08/08 10:19:39;;;;;;;3.65;0.90;;;22.50;99.90;;;;;;5032382;28;20143;-63
2022/08/08 10:22:06;;;;;;;5.30;1.35;;;22.50;99.90;;;;;;5032187;28;20084;-62
2022/08/08 10:24:33;;;;;;;3.45;1.00;;;22.50;99.90;;;;;;5032514;28;20508;-63
2022/08/08 10:27:01;;;;;;;5.25;1.00;;;22.40;99.90;;;;;;5014994;28;20053;-63
2022/08/08 10:29:43;;;;;;;3.58;0.70;;;22.40;99.90;;;;;;5015393;28;20073;-63
2022/08/08 10:35:04;;;;;;;3.00;0.80;;;22.20;99.90;;;;;;5032301;28;20399;-63
2022/08/08 10:37:35;;;;;;;5.93;1.15;;;22.20;99.90;;;;;;5032327;28;20037;-63
2022/08/08 10:40:13;;;;;;;5.05;1.00;;;22.30;99.90;;;;;;5032045;28;20440;-63
2022/08/08 10:42:40;;;;;;;2.45;0.82;;;22.40;99.90;;;;;;5032056;28;20060;-62
2022/08/08 10:45:08;;;;;;;2.73;1.00;;;22.40;99.90;;;;;;5032134;28;20436;-62
2022/08/08 10:47:34;;;;;;;2.43;1.00;;;22.50;99.90;;;;;;5034994;28;20050;-63
2022/08/08 10:50:02;;;;;;;2.72;0.70;;;22.40;99.90;;;;;;5073893;28;20032;-63
2022/08/08 10:52:37;;;;;;;2.25;0.73;;;22.50;99.90;;;;;;5074083;28;20116;-63
2022/08/08 10:55:06;;;;;;;2.45;0.70;;;22.60;99.90;;;;;;5074270;28;20398;-64
2022/08/08 10:57:43;;;;;;;1.90;0.77;;;22.50;99.90;;;;;;5073548;28;20044;-63
2022/08/08 11:00:11;;;;;;;2.17;0.80;;;22.60;99.90;;;;;;5073844;28;20032;-63
2022/08/08 11:02:37;;;;;;;1.70;0.93;;;22.80;99.90;;;;;;5072713;28;20119;-62
2022/08/08 11:05:08;;;;;;;4.18;0.90;;;22.90;99.90;;;;;;5073939;28;20139;-64
2022/08/08 11:07:36;;;;;;;3.17;0.88;;;22.90;99.90;;;;;;5073884;28;20082;-62
2022/08/08 11:10:04;;;;;;;3.85;1.13;;;23.00;99.90;;;;;;5073783;28;20123;-63
2022/08/08 11:12:34;;;;;;;2.53;0.80;;;22.90;99.90;;;;;;5074239;28;20040;-63
2022/08/08 11:15:00;;;;;;;6.32;0.95;;;22.70;99.90;;;;;;5073589;28;20041;-63
2022/08/08 11:17:31;;;;;;;7.32;1.02;;;22.80;99.90;;;;;;5073838;28;20439;-64
2022/08/08 11:19:58;;;;;;;4.32;0.90;;;22.70;99.90;;;;;;5072318;28;20119;-62
2022/08/08 11:22:31;;;;;;;2.63;0.88;;;22.60;99.90;;;;;;5073041;28;20479;-62
2022/08/08 11:25:01;;;;;;;3.53;1.00;;;22.70;99.90;;;;;;5073722;28;20079;-63
2022/08/08 11:27:31;;;;;;;4.88;1.08;;;22.50;99.90;;;;;;5073671;28;20048;-64
2022/08/08 11:29:59;;;;;;;1.10;0.80;;;22.50;99.90;;;;;;5074052;28;20095;-63
2022/08/08 11:32:29;;;;;;;4.20;0.95;;;22.60;99.90;;;;;;5073654;28;20040;-63
2022/08/08 11:35:04;;;;;;;4.28;0.88;;;22.60;99.90;;;;;;5073508;28;20032;-62
2022/08/08 11:37:32;;;;;;;3.58;0.95;;;22.70;99.90;;;;;;5073526;28;20482;-64
2022/08/08 11:39:59;;;;;;;2.15;0.88;;;22.70;99.90;;;;;;5055704;28;20041;-63
2022/08/08 11:42:26;;;;;;;1.85;0.80;;;22.70;99.90;;;;;;5073437;28;20041;-64
2022/08/08 11:44:56;;;;;;;4.82;1.05;;;22.70;99.90;;;;;;5073067;28;20032;-62
2022/08/08 11:47:22;;;;;;;7.97;1.15;;;22.80;99.90;;;;;;5073467;28;20101;-63
2022/08/08 11:49:51;;;;;;;2.72;1.00;;;22.70;99.90;;;;;;5073103;28;20045;-63
2022/08/08 11:52:18;;;;;;;4.15;0.90;;;22.70;99.90;;;;;;5073447;28;20444;-63
2022/08/08 11:54:44;;;;;;;2.78;0.80;;;22.80;99.90;;;;;;5073426;28;20039;-63
2022/08/08 11:57:22;;;;;;;3.55;0.65;;;22.90;99.90;;;;;;5073369;28;20040;-63
2022/08/08 12:00:01;;;;;;;4.53;0.82;;;22.90;99.90;;;;;;5073044;28;20032;-63
2022/08/08 12:02:30;;;;;;;3.47;1.00;;;23.00;99.90;;;;;;5072982;28;20037;-63
2022/08/08 12:04:59;;;;;;;3.08;0.80;;;23.00;99.90;;;;;;5073101;28;20483;-63
2022/08/08 12:07:25;;;;;;;2.53;0.80;;;23.00;99.90;;;;;;5073115;28;20040;-63
2022/08/08 12:09:53;;;;;;;2.00;0.70;;;22.90;99.90;;;;;;5073175;28;20053;-64
2022/08/08 12:12:26;;;;;;;2.13;0.98;;;22.80;99.90;;;;;;5077001;28;20091;-63
2022/08/08 12:15:02;;;;;;;4.63;1.17;;;22.70;99.90;;;;;;5076863;28;20048;-64
2022/08/08 12:17:35;;;;;;;5.03;1.33;;;22.60;99.90;;;;;;5076720;28;20536;-63
2022/08/08 12:20:03;;;;;;;3.88;0.77;;;22.60;99.90;;;;;;5077053;28;20032;-64
2022/08/08 12:22:31;;;;;;;5.35;0.93;;;22.60;99.90;;;;;;5076386;28;20063;-64
2022/08/08 12:24:57;;;;;;;4.70;0.90;;;22.50;99.90;;;;;;5076832;28;20079;-64
2022/08/08 12:27:23;;;;;;;3.03;0.93;;;22.60;99.90;;;;;;5076478;28;20402;-64
2022/08/08 12:29:57;;;;;;;3.72;0.93;;;22.60;99.90;;;;;;5076651;28;20433;-64
2022/08/08 12:32:23;;;;;;;3.00;1.13;;;22.50;99.90;;;;;;5076598;28;20036;-64
2022/08/08 12:34:55;;;;;;;2.42;0.73;;;22.50;99.90;;;;;;5076617;28;20402;-64
2022/08/08 12:37:22;;;;;;;2.72;0.80;;;22.60;99.90;;;;;;5075392;28;20045;-64
2022/08/08 12:39:48;;;;;;;3.38;0.63;;;22.60;99.90;;;;;;5075485;28;20115;-64
2022/08/08 12:42:14;;;;;;;2.47;0.75;;;22.60;99.90;;;;;;5076364;28;20032;-63
2022/08/08 12:44:41;;;;;;;3.90;0.75;;;22.60;99.90;;;;;;5076294;28;20036;-63
2022/08/08 12:47:08;;;;;;;2.17;0.85;;;22.60;99.90;;;;;;5076419;28;20068;-64
2022/08/08 12:49:35;;;;;;;6.07;1.40;;;22.60;99.90;;;;;;5076319;28;20082;-64
2022/08/08 12:52:03;;;;;;;7.47;1.00;;;22.70;99.90;;;;;;5075309;28;20542;-64
2022/08/08 12:54:37;;;;;;;1.65;0.93;;;22.80;99.90;;;;;;5076273;28;20048;-64
2022/08/08 12:57:23;;;;;;;2.13;0.70;;;23.30;99.90;;;;;;5076000;28;20045;-63
2022/08/08 12:59:50;;;;;;;2.80;1.00;;;23.70;99.90;;;;;;5076057;28;20052;-62
2022/08/08 13:02:32;;;;;;;6.75;0.80;;;23.80;99.90;;;;;;5076076;28;20037;-62
2022/08/08 13:05:00;;;;;;;8.38;1.73;;;23.90;99.90;;;;;;5076089;28;20132;-63
2022/08/08 13:07:34;;;;;;;2.63;0.75;;;23.90;99.90;;;;;;5074584;28;20475;-63
2022/08/08 13:10:02;;;;;;;2.67;0.88;;;24.00;99.90;;;;;;5075805;28;20032;-63
2022/08/08 13:12:31;;;;;;;;;;;23.90;99.90;;;;;;5076406;28;20055;-63
2022/08/08 13:15:04;;;;;;;3.10;0.75;;;23.90;99.90;;;;;;5075911;28;20320;-63
2022/08/08 13:17:32;;;;;;;6.40;1.02;;;23.90;99.90;;;;;;5075775;28;20387;-63
2022/08/08 13:19:58;;;;;;;1.80;0.95;;;23.80;99.90;;;;;;5075780;28;20032;-63